EDT,Max TemperatureF,Mean TemperatureF,Min TemperatureF,Max Dew PointF,MeanDew PointF,Min DewpointF,Max Humidity, Mean Humidity, Min Humidity, Max Sea Level PressureIn, Mean Sea Level PressureIn, Min Sea Level PressureIn, Max VisibilityMiles, Mean VisibilityMiles, Min VisibilityMiles, Max Wind SpeedMPH, Mean Wind SpeedMPH, Max Gust SpeedMPH,PrecipitationIn, CloudCover, Events, WindDirDegrees
2012-8-1,91,81,70,71,68,63,90,67,43,29.94,29.87,29.83,10,10,10,13,4,17,0.00,1,,230
2012-8-2,93,80,67,70,64,57,90,60,30,29.93,29.88,29.84,10,10,10,10,4,14,0.00,0,,126
2012-8-3,79,76,72,73,70,66,100,87,74,29.98,29.93,29.84,10,9,2,15,6,21,0.53,4,Rain,118
2012-8-4,89,81,73,76,73,71,100,84,68,30.05,30.00,29.94,10,10,1,22,11,26,0.46,3,Rain,183
2012-8-5,82,79,75,74,73,71,94,87,79,30.14,30.08,30.02,10,10,10,18,10,24,0.01,5,Rain,213
2012-8-6,86,79,71,73,69,64,100,76,51,30.14,30.09,30.01,10,10,9,12,5,15,0.05,5,Rain,50
2012-8-7,89,78,67,69,66,61,100,70,40,30.03,29.99,29.95,10,10,10,9,1,18,0.00,1,,178
2012-8-8,91,80,69,69,67,61,93,66,38,30.01,29.97,29.92,10,10,10,12,4,16,0.00,0,,217
2012-8-9,88,78,67,70,67,64,93,74,55,29.94,29.87,29.78,10,9,2,31,7,39,0.71,3,Rain-Thunderstorm,141
2012-8-10,78,71,63,70,65,58,100,77,54,29.89,29.79,29.72,10,10,5,17,8,23,0.17,5,Rain,265
2012-8-11,77,66,55,59,56,53,93,72,50,30.01,29.97,29.91,10,10,10,9,3,14,0.00,2,,270
2012-8-12,80,67,53,59,55,52,100,70,39,30.07,30.03,30.01,10,10,10,10,2,14,0.00,0,,195
2012-8-13,78,69,60,64,60,57,93,74,54,30.04,29.98,29.91,10,10,10,14,6,18,T,4,Rain,169
2012-8-14,82,75,67,68,65,62,93,74,55,29.95,29.91,29.87,10,10,10,14,5,18,T,6,Rain,233
2012-8-15,84,75,66,65,62,57,93,67,40,30.01,29.97,29.91,10,10,10,10,2,13,0.00,3,,333
2012-8-16,86,73,60,64,61,59,97,70,43,30.06,29.99,29.90,10,10,10,22,6,28,T,1,,201
2012-8-17,81,70,58,68,64,55,100,76,51,29.99,29.94,29.88,10,9,2,10,5,14,T,5,Rain,249
2012-8-18,81,69,56,58,54,51,93,65,36,30.00,29.95,29.89,10,10,10,10,4,15,0.00,1,,1
2012-8-19,83,71,59,59,53,49,93,63,33,29.92,29.89,29.85,10,10,10,14,4,17,0.00,0,,325
2012-8-20,81,67,52,54,51,47,93,62,30,29.99,29.95,29.91,10,10,10,12,3,16,0.00,0,,313
2012-8-21,81,67,53,60,56,51,100,68,36,30.10,30.05,30.00,10,10,7,17,4,24,0.21,2,Rain,96
2012-8-22,83,68,52,60,55,50,100,67,34,30.16,30.11,30.07,10,9,2,9,2,10,0.00,0,,142
2012-8-23,86,71,55,59,55,51,93,62,30,30.15,30.11,30.06,10,10,10,12,4,14,0.00,0,,154
2012-8-24,90,75,59,63,56,49,90,57,24,30.13,30.08,30.03,10,10,10,10,4,15,0.00,0,Rain,158
2012-8-25,93,79,64,65,60,54,87,58,29,30.13,30.09,30.05,10,10,10,14,5,17,0.00,0,,165
2012-8-26,90,76,62,68,63,60,93,67,40,30.17,30.10,30.03,10,10,10,12,3,14,0.00,0,,205
2012-8-27,90,79,68,71,66,63,87,66,44,30.09,30.04,29.97,10,10,10,17,7,23,0.01,4,Rain,228
2012-8-28,89,78,66,72,68,58,100,72,43,30.09,30.02,29.96,10,9,4,13,5,17,T,6,Rain,26
2012-8-29,87,75,63,60,58,55,84,59,34,30.07,30.02,29.97,10,10,10,14,8,20,0.00,0,,45
2012-8-30,91,78,64,70,59,54,82,58,34,30.10,30.05,30.01,10,10,10,13,6,17,0.00,0,,116
2012-8-31,86,79,71,71,70,69,93,77,61,30.20,30.13,30.09,10,10,10,14,7,18,T,1,Rain,185